Pagina principale
METAR-TAF:

METAR-TAF

Aeroporti :

Montichiari

Brescia, Italia

latitudine: 45-24-02N, longitudine: 010-18-59E, altezza: 104 m

Osservazione

Il bollettino è stato emesso 22 minuti fa, alle 12:50 UTC
Vento 3 kt da direzioni variabili
Temperature 16°C
Umidità 45%
Pressione 1021 hPa
Visibilità 10 km o più

METAR: LIPO 261250Z AUTO VRB03KT 9999 NCD 16/04 Q1021

Ora: 15:12 (13:12 UTC)

Previsione

Il bollettino è stato emesso 2 ore e 12 minuti fa, alle 11:00 UTC
Previsione valida dal 26 alle 12 UTC al 27 alle 12 UTC
Vento 5 kt da direzioni variabili
Visibilità 10 km o più
nessuna nube inferiore a 1500 m e nessun cumulonembo
Temporaneamente
dal 27 alle 00 UTC al 27 alle 05 UTC
Visibilità: 4000 m
foschia

TAF: LIPO 261100Z 2612/2712 VRB05KT CAVOK TEMPO 2700/2705 4000 BR

Osservazioni e previsioni meteorologiche di più di 4000 aeroporti (messaggi METAR e TAF).

Le stazioni disponibili sono rappresentate dai dischi gialli e rossi sulla carta.

Puntare il mouse per vedere il nome della stazione.

Clicca sopra per visualizzare le osservazioni e previsioni meteorologiche.

Per cambiare la mappa : fare clic sui pulsanti verdi con una croce nera per ingrandire, il pulsante verde con un trattino per diminuire, o sulla freccia verde per le mappe adiacenti.


METAR-TAF: